Time;durP1;ratioP1;P1;durP2;ratioP2;P2;SDS_P1;SDS_P2;PMS_P1;PMS_P2;Temp;Humidity;BMP_temperature;BMP_pressure;BME280_temperature;BME280_humidity;BME280_pressure;Samples;Min_cycle;Max_cycle;Signal;HPM_P1;HPM_P2
2022/08/24 00:01:15;;;;;;;5.85;4.32;;;;;;;14.18;nan;101276.91;4946869;29;20484;-79
2022/08/24 00:03:44;;;;;;;5.15;4.07;;;;;;;14.16;nan;101276.09;4945896;29;20131;-80
2022/08/24 00:06:18;;;;;;;4.13;3.60;;;;;;;14.13;nan;101268.22;4943991;29;20119;-79
2022/08/24 00:08:46;;;;;;;5.93;4.28;;;;;;;14.09;nan;101277.16;4946825;29;20115;-79
2022/08/24 00:11:14;;;;;;;5.85;4.78;;;;;;;14.08;nan;101273.63;4945916;29;20248;-79
2022/08/24 00:13:41;;;;;;;4.93;4.00;;;;;;;14.11;nan;101275.31;4946910;29;20100;-79
2022/08/24 00:16:09;;;;;;;4.63;4.15;;;;;;;14.11;nan;101269.13;4946493;29;20104;-77
2022/08/24 00:18:36;;;;;;;4.80;4.25;;;;;;;14.06;nan;101267.50;5014966;23;20039;-79
2022/08/24 00:21:04;;;;;;;5.00;4.50;;;;;;;14.06;nan;101266.63;4948408;29;20035;-79
2022/08/24 00:23:31;;;;;;;5.00;4.47;;;;;;;14.05;nan;101271.06;4936344;29;20044;-78
2022/08/24 00:25:58;;;;;;;4.82;4.07;;;;;;;14.04;nan;101266.66;4919738;29;20043;-79
2022/08/24 00:28:25;;;;;;;5.30;4.03;;;;;;;14.03;nan;101270.19;4952419;29;20037;-79
2022/08/24 00:30:52;;;;;;;5.10;4.50;;;;;;;14.05;nan;101276.38;4934922;29;20047;-79
2022/08/24 00:33:19;;;;;;;6.40;4.53;;;;;;;14.07;nan;101279.84;4955457;29;20065;-79
2022/08/24 00:35:46;;;;;;;5.25;4.75;;;;;;;14.12;nan;101274.41;4953247;29;20050;-79
2022/08/24 00:38:13;;;;;;;6.60;4.90;;;;;;;14.17;nan;101276.97;4943087;29;20049;-79
2022/08/24 00:40:43;;;;;;;8.07;5.80;;;;;;;14.19;nan;101272.47;4931578;29;20161;-78
2022/08/24 00:43:11;;;;;;;6.80;5.47;;;;;;;14.22;nan;101269.75;4949146;29;20081;-79
2022/08/24 00:45:44;;;;;;;10.38;4.53;;;;;;;14.24;nan;101271.47;4919793;29;20043;-79
2022/08/24 00:48:15;;;;;;;7.93;5.83;;;;;;;14.23;nan;101264.41;4935557;29;20035;-79
2022/08/24 00:50:47;;;;;;;6.90;4.70;;;;;;;14.21;nan;101266.22;4932480;29;20074;-79
2022/08/24 00:53:30;;;;;;;6.47;5.20;;;;;;;14.18;nan;101262.75;4934853;29;20045;-79
2022/08/24 00:56:00;;;;;;;6.00;5.40;;;;;;;14.13;nan;101262.91;4933793;29;20632;-79
2022/08/24 00:58:33;;;;;;;6.00;4.63;;;;;;;14.11;nan;101266.47;4952872;29;20037;-79
2022/08/24 01:01:02;;;;;;;5.28;4.57;;;;;;;14.07;nan;101261.25;4951747;28;20514;-78
2022/08/24 01:03:30;;;;;;;4.95;4.55;;;;;;;14.05;nan;101262.22;4946992;29;20043;-78
2022/08/24 01:05:58;;;;;;;5.78;5.15;;;;;;;14.01;nan;101268.50;4942849;29;20046;-79
2022/08/24 01:08:25;;;;;;;5.53;4.90;;;;;;;14.00;nan;101272.94;4954392;29;20031;-78
2022/08/24 01:10:58;;;;;;;5.15;4.65;;;;;;;13.97;nan;101275.69;4951836;29;20075;-78
2022/08/24 01:13:26;;;;;;;6.05;4.78;;;;;;;13.94;nan;101278.41;4930906;29;20234;-77
2022/08/24 01:15:55;;;;;;;5.57;4.30;;;;;;;13.91;nan;101283.81;4931444;29;20040;-78
2022/08/24 01:21:15;;;;;;;5.07;4.57;;;;;;;13.89;nan;101290.94;4941652;28;20035;-77
2022/08/24 01:23:53;;;;;;;6.13;4.80;;;;;;;13.85;nan;101289.25;4948733;29;20035;-79
2022/08/24 01:26:41;;;;;;;6.00;4.85;;;;;;;13.82;nan;101286.69;4950688;28;20053;-79
2022/08/24 01:29:11;;;;;;;5.00;4.38;;;;;;;13.78;nan;101283.19;4947677;29;20027;-79
2022/08/24 01:31:38;;;;;;;5.43;4.65;;;;;;;13.74;nan;101289.50;4917569;29;20062;-77
2022/08/24 01:34:05;;;;;;;5.88;4.90;;;;;;;13.72;nan;101283.38;4948357;28;20066;-78
2022/08/24 01:36:54;;;;;;;7.28;5.32;;;;;;;13.71;nan;101286.06;4950890;29;20057;-80
2022/08/24 01:39:30;;;;;;;6.78;4.70;;;;;;;13.67;nan;101287.03;4952466;29;20035;-78
2022/08/24 01:41:58;;;;;;;5.03;4.53;;;;;;;13.64;nan;101290.63;4947632;29;20492;-77
2022/08/24 01:44:27;;;;;;;5.15;4.32;;;;;;;13.63;nan;101288.03;4933829;29;20232;-79
2022/08/24 01:46:55;;;;;;;4.82;4.35;;;;;;;13.63;nan;101288.03;4930150;29;20048;-77
2022/08/24 01:49:26;;;;;;;7.18;5.32;;;;;;;13.62;nan;101281.84;4938652;29;20047;-77
2022/08/24 01:51:54;;;;;;;6.53;4.43;;;;;;;13.63;nan;101285.38;4924473;29;20046;-77
2022/08/24 01:54:21;;;;;;;6.45;4.45;;;;;;;13.63;nan;101286.25;4916900;29;20050;-79
2022/08/24 01:56:48;;;;;;;7.30;5.28;;;;;;;13.65;nan;101295.03;4951960;28;20051;-77
2022/08/24 01:59:15;;;;;;;5.65;4.80;;;;;;;13.65;nan;101295.03;4949635;28;20114;-78
2022/08/24 02:01:49;;;;;;;5.60;5.10;;;;;;;13.66;nan;101294.13;4932298;29;20040;-77
2022/08/24 02:04:16;;;;;;;5.25;4.55;;;;;;;13.68;nan;101297.63;4951518;29;20043;-78
2022/08/24 02:06:43;;;;;;;6.85;5.32;;;;;;;13.71;nan;101299.34;4947494;29;20509;-79
2022/08/24 02:09:11;;;;;;;6.85;5.20;;;;;;;13.73;nan;101297.53;4950431;29;20033;-77
2022/08/24 02:11:39;;;;;;;5.72;5.03;;;;;;;13.74;nan;101292.16;4950591;29;20039;-78
2022/08/24 02:14:06;;;;;;;6.05;5.05;;;;;;;13.75;nan;101295.69;4949709;29;20046;-79
2022/08/24 02:16:33;;;;;;;9.55;5.50;;;;;;;13.76;nan;101289.47;4948135;29;20042;-77
2022/08/24 02:18:59;;;;;;;8.02;6.30;;;;;;;13.79;nan;101286.75;4945622;29;20031;-78
2022/08/24 02:21:26;;;;;;;7.57;5.10;;;;;;;13.79;nan;101286.75;4935843;29;20039;-77
2022/08/24 02:23:53;;;;;;;6.55;4.65;;;;;;;13.77;nan;101284.13;4951843;29;20039;-78
2022/08/24 02:26:20;;;;;;;8.02;5.15;;;;;;;13.78;nan;101285.84;4944400;29;20411;-77
2022/08/24 02:28:47;;;;;;;6.70;5.30;;;;;;;13.82;nan;101283.16;4924245;29;20711;-78
2022/08/24 02:31:14;;;;;;;7.82;5.57;;;;;;;13.84;nan;101276.88;4931060;29;20052;-77
2022/08/24 02:33:41;;;;;;;9.57;6.32;;;;;;;13.84;nan;101282.19;4932662;29;20044;-77
2022/08/24 02:36:10;;;;;;;7.90;5.78;;;;;;;13.84;nan;101282.19;4932571;29;20046;-77
2022/08/24 02:38:53;;;;;;;7.32;5.80;;;;;;;13.84;nan;101281.31;4945708;29;20080;-78
2022/08/24 02:41:22;;;;;;;9.18;5.53;;;;;;;13.86;nan;101283.03;4915521;29;20047;-79
2022/08/24 02:43:49;;;;;;;10.52;6.50;;;;;;;13.85;nan;101278.63;4933006;29;20044;-77
2022/08/24 02:46:24;;;;;;;10.48;6.25;;;;;;;13.85;nan;101283.06;4962709;28;20047;-79
2022/08/24 02:48:51;;;;;;;9.57;6.68;;;;;;;13.86;nan;101285.69;4957857;28;20039;-79
2022/08/24 02:51:28;;;;;;;9.85;6.85;;;;;;;13.86;nan;101284.81;4938338;29;20039;-77
2022/08/24 02:53:59;;;;;;;10.07;7.10;;;;;;;13.88;nan;101288.31;4949404;29;20062;-78
2022/08/24 02:56:28;;;;;;;9.40;6.00;;;;;;;13.86;nan;101283.03;4947369;29;20131;-78
2022/08/24 02:58:59;;;;;;;8.30;6.78;;;;;;;13.83;nan;101284.91;4938142;29;20040;-77
2022/08/24 03:01:27;;;;;;;6.57;5.40;;;;;;;13.81;nan;101282.28;4930249;29;20050;-77
2022/08/24 03:03:56;;;;;;;8.68;6.03;;;;;;;13.80;nan;101285.84;4948635;28;20045;-80
2022/08/24 03:06:23;;;;;;;10.52;6.85;;;;;;;13.80;nan;101283.19;4955074;28;20042;-78
2022/08/24 03:08:50;;;;;;;10.40;7.47;;;;;;;13.78;nan;101282.34;4952784;29;20050;-77
2022/08/24 03:11:22;;;;;;;10.10;7.15;;;;;;;13.78;nan;101282.34;4949337;29;20044;-77
2022/08/24 03:13:54;;;;;;;10.75;7.30;;;;;;;13.80;nan;101280.53;4920293;29;20054;-80
2022/08/24 03:16:21;;;;;;;9.60;6.72;;;;;;;13.80;nan;101275.22;4934153;29;20046;-78
2022/08/24 03:18:48;;;;;;;12.10;7.35;;;;;;;13.80;nan;101281.41;4936526;29;20412;-78
2022/08/24 03:21:15;;;;;;;8.48;7.00;;;;;;;13.86;nan;101274.19;4968280;28;20062;-78
2022/08/24 03:23:42;;;;;;;10.43;6.53;;;;;;;13.90;nan;101270.56;4954522;29;20047;-80
2022/08/24 03:26:10;;;;;;;11.35;6.82;;;;;;;13.95;nan;101266.00;4952691;29;20043;-79
2022/08/24 03:28:37;;;;;;;12.05;7.72;;;;;;;14.02;nan;101259.63;4953790;29;20527;-79
2022/08/24 03:31:05;;;;;;;10.90;7.70;;;;;;;14.05;nan;101270.19;4952901;28;20407;-80
2022/08/24 03:33:32;;;;;;;10.80;7.07;;;;;;;14.08;nan;101273.63;4939614;29;20051;-78
2022/08/24 03:35:59;;;;;;;8.85;7.50;;;;;;;14.16;nan;101277.88;4950188;29;20039;-77
2022/08/24 03:38:27;;;;;;;7.95;6.72;;;;;;;14.17;nan;101277.84;4954635;29;20043;-78
2022/08/24 03:40:54;;;;;;;9.60;7.50;;;;;;;14.21;nan;101278.63;4937167;29;20119;-77
2022/08/24 03:46:07;;;;;;;11.35;7.07;;;;;;;14.31;nan;101272.19;4934651;29;20110;-78
2022/08/24 03:48:34;;;;;;;11.40;7.70;;;;;;;14.33;nan;101268.56;4948297;29;20050;-77
2022/08/24 03:51:02;;;;;;;9.82;6.47;;;;;;;14.32;nan;101269.47;4949522;28;20046;-78
2022/08/24 03:53:29;;;;;;;12.27;7.65;;;;;;;14.37;nan;101270.19;4944838;29;20072;-78
2022/08/24 03:55:56;;;;;;;9.82;7.32;;;;;;;14.38;nan;101265.78;4946877;28;20045;-78
2022/08/24 03:58:23;;;;;;;8.02;6.53;;;;;;;14.40;nan;101277.25;4954287;29;20045;-78
2022/08/24 04:00:50;;;;;;;10.05;7.13;;;;;;;14.42;nan;101277.19;4947390;29;20044;-79
2022/08/24 04:03:17;;;;;;;10.85;7.50;;;;;;;14.40;nan;101277.25;4946861;29;20047;-78
2022/08/24 04:05:44;;;;;;;10.75;7.05;;;;;;;14.37;nan;101283.50;4931846;29;20534;-79
2022/08/24 04:08:12;;;;;;;12.85;7.68;;;;;;;14.39;nan;101280.81;4938997;29;20043;-78
2022/08/24 04:10:43;;;;;;;12.40;7.38;;;;;;;14.41;nan;101296.72;4937349;29;20043;-78
2022/08/24 04:13:10;;;;;;;10.75;7.25;;;;;;;14.40;nan;101295.84;4941246;29;20041;-78
2022/08/24 04:15:39;;;;;;;14.15;8.77;;;;;;;14.43;nan;101298.41;4951848;28;20039;-78
2022/08/24 04:18:06;;;;;;;13.50;7.82;;;;;;;14.44;nan;101294.84;4954202;28;20035;-77
2022/08/24 04:20:41;;;;;;;13.05;7.93;;;;;;;14.46;nan;101303.72;4932775;29;20035;-78
2022/08/24 04:23:10;;;;;;;14.15;8.38;;;;;;;14.49;nan;101298.31;4948175;29;20050;-79
2022/08/24 04:25:44;;;;;;;16.50;9.23;;;;;;;14.56;nan;101307.88;4936869;29;20053;-78
2022/08/24 04:28:12;;;;;;;14.77;9.25;;;;;;;14.63;nan;101301.47;4951813;29;20046;-79
2022/08/24 04:30:45;;;;;;;17.48;8.40;;;;;;;14.66;nan;101297.84;4946766;29;20035;-79
2022/08/24 04:33:13;;;;;;;12.27;8.50;;;;;;;14.73;nan;101295.91;4961547;28;20046;-79
2022/08/24 04:35:42;;;;;;;15.98;9.13;;;;;;;14.78;nan;101304.63;4935160;29;20047;-79
2022/08/24 04:38:09;;;;;;;11.48;8.35;;;;;;;14.81;nan;101305.41;4953006;29;20415;-79
2022/08/24 04:40:41;;;;;;;17.40;8.57;;;;;;;14.88;nan;101306.09;4929570;29;20392;-79
2022/08/24 04:43:09;;;;;;;10.23;7.15;;;;;;;14.93;nan;101309.50;4952174;29;20039;-79
2022/08/24 04:45:40;;;;;;;12.38;9.00;;;;;;;14.97;nan;101311.19;4935730;29;20035;-79
2022/08/24 04:48:08;;;;;;;15.82;9.07;;;;;;;15.08;nan;101308.22;4952874;29;20043;-79
2022/08/24 04:50:37;;;;;;;9.48;7.78;;;;;;;15.11;nan;101319.63;4948682;29;20042;-79
2022/08/24 04:53:05;;;;;;;14.02;8.50;;;;;;;15.12;nan;101315.19;4936865;29;20043;-79
2022/08/24 04:55:39;;;;;;;11.73;8.82;;;;;;;15.19;nan;101322.06;4954044;28;20043;-79
2022/08/24 04:58:06;;;;;;;11.15;7.68;;;;;;;15.29;nan;101320.88;4954372;29;20035;-78
2022/08/24 05:00:33;;;;;;;11.90;7.88;;;;;;;15.41;nan;101322.31;4951749;28;20039;-79
2022/08/24 05:03:01;;;;;;;12.05;7.28;;;;;;;15.54;nan;101323.69;4953712;28;20053;-78
2022/08/24 05:05:29;;;;;;;13.15;7.63;;;;;;;15.65;nan;101324.28;4937179;29;20049;-78
2022/08/24 05:07:56;;;;;;;12.27;7.72;;;;;;;15.82;nan;101320.22;4951952;29;20046;-78
2022/08/24 05:10:23;;;;;;;12.55;7.13;;;;;;;15.93;nan;101326.94;4953752;29;20043;-79
2022/08/24 05:12:50;;;;;;;8.45;6.70;;;;;;;16.04;nan;101324.78;4949935;29;20420;-78
2022/08/24 05:15:17;;;;;;;9.80;6.88;;;;;;;16.09;nan;101337.13;4952954;29;20046;-78
2022/08/24 05:17:44;;;;;;;11.23;6.63;;;;;;;16.18;nan;101334.16;4948964;28;20043;-79
2022/08/24 05:20:16;;;;;;;10.05;7.88;;;;;;;16.22;nan;101333.09;4936780;29;20507;-78
2022/08/24 05:22:43;;;;;;;8.75;6.68;;;;;;;16.30;nan;101336.38;4941345;29;20586;-78
2022/08/24 05:25:10;;;;;;;9.63;7.07;;;;;;;16.36;nan;101341.53;4949794;29;20041;-78
2022/08/24 05:27:37;;;;;;;10.38;7.07;;;;;;;16.49;nan;101344.66;4945207;28;20043;-78
2022/08/24 05:30:05;;;;;;;10.52;6.88;;;;;;;16.54;nan;101343.56;4950975;29;20118;-79
2022/08/24 05:32:32;;;;;;;9.60;6.20;;;;;;;16.57;nan;101339.94;4951661;29;20047;-78
2022/08/24 05:35:00;;;;;;;9.25;7.05;;;;;;;16.72;nan;101343.88;4952533;29;20042;-78
2022/08/24 05:37:27;;;;;;;8.98;7.22;;;;;;;16.71;nan;101340.34;4953318;29;20070;-78
2022/08/24 05:39:54;;;;;;;9.20;7.28;;;;;;;16.77;nan;101339.28;4954385;29;20047;-79
2022/08/24 05:42:21;;;;;;;9.43;6.68;;;;;;;16.77;nan;101347.28;4949615;29;20411;-78
2022/08/24 05:44:48;;;;;;;8.52;6.50;;;;;;;16.82;nan;101343.53;4935694;29;20051;-78
2022/08/24 05:47:15;;;;;;;10.27;7.05;;;;;;;16.95;nan;101351.09;4928413;29;20054;-78
2022/08/24 05:49:42;;;;;;;10.07;7.22;;;;;;;17.06;nan;101346.22;4949496;29;20559;-79
2022/08/24 05:52:09;;;;;;;7.95;7.13;;;;;;;17.20;nan;101351.06;4945848;29;20045;-77
2022/08/24 05:54:36;;;;;;;10.95;7.85;;;;;;;17.34;nan;101346.97;4947501;29;20408;-79
2022/08/24 05:57:05;;;;;;;8.80;6.22;;;;;;;17.41;nan;101350.28;4946440;29;20048;-78
2022/08/24 05:59:32;;;;;;;10.20;7.82;;;;;;;17.52;nan;101349.84;4929510;29;20512;-78
2022/08/24 06:01:59;;;;;;;8.70;6.95;;;;;;;17.64;nan;101352.03;4917420;29;20051;-78
2022/08/24 06:04:27;;;;;;;9.13;6.93;;;;;;;17.69;nan;101356.28;4948280;29;20037;-79
2022/08/24 06:06:54;;;;;;;8.32;7.10;;;;;;;17.74;nan;101356.16;4949520;29;20039;-79
2022/08/24 06:09:21;;;;;;;7.43;5.95;;;;;;;17.77;nan;101357.84;4950606;29;20035;-78
2022/08/24 06:11:48;;;;;;;11.90;7.35;;;;;;;17.84;nan;101352.19;4944882;29;20040;-79
2022/08/24 06:14:17;;;;;;;9.27;6.13;;;;;;;17.91;nan;101352.81;4933118;29;20045;-79
2022/08/24 06:16:46;;;;;;;7.47;6.05;;;;;;;17.95;nan;101352.63;4947749;29;20039;-78
2022/08/24 06:19:16;;;;;;;13.50;7.70;;;;;;;18.04;nan;101361.22;4934635;29;20394;-78
2022/08/24 06:21:45;;;;;;;10.60;7.20;;;;;;;18.14;nan;101365.25;4955371;23;20044;-78
2022/08/24 06:24:14;;;;;;;10.80;8.13;;;;;;;18.22;nan;101361.31;4952020;29;20055;-77
2022/08/24 06:29:28;;;;;;;9.00;6.68;;;;;;;18.49;nan;101366.44;4952105;29;20537;-79
2022/08/24 06:31:55;;;;;;;10.45;6.93;;;;;;;18.64;nan;101364.94;4949026;29;20036;-78
2022/08/24 06:34:24;;;;;;;8.10;6.72;;;;;;;18.77;nan;101375.09;4933693;29;20046;-78
2022/08/24 06:36:51;;;;;;;9.00;6.55;;;;;;;18.90;nan;101372.75;4949644;29;20039;-79
2022/08/24 06:39:19;;;;;;;12.18;6.93;;;;;;;19.06;nan;101376.50;4953908;28;20036;-79
2022/08/24 06:41:46;;;;;;;9.80;7.07;;;;;;;19.09;nan;101380.88;4954097;29;20031;-78
2022/08/24 06:44:13;;;;;;;9.23;6.25;;;;;;;19.15;nan;101377.88;4956025;29;20057;-78
2022/08/24 06:46:40;;;;;;;9.32;7.28;;;;;;;19.28;nan;101378.22;4955344;29;20039;-78
2022/08/24 06:49:07;;;;;;;8.63;6.68;;;;;;;19.32;nan;101382.50;4937268;29;20051;-78
2022/08/24 06:51:34;;;;;;;6.82;6.15;;;;;;;19.31;nan;101389.66;4954591;29;20036;-78
2022/08/24 06:54:01;;;;;;;8.05;6.95;;;;;;;19.43;nan;101393.59;4955918;29;20046;-78
2022/08/24 06:56:28;;;;;;;8.85;6.13;;;;;;;19.57;nan;101387.63;4951708;29;20051;-78
2022/08/24 06:58:55;;;;;;;8.05;6.50;;;;;;;19.65;nan;101391.69;4935050;29;20404;-78
2022/08/24 07:01:24;;;;;;;10.45;6.72;;;;;;;19.63;nan;101393.59;4953105;29;20042;-77
2022/08/24 07:03:51;;;;;;;9.43;6.93;;;;;;;19.63;nan;101396.25;4954641;29;20039;-77
2022/08/24 07:06:19;;;;;;;8.00;6.57;;;;;;;19.76;nan;101393.00;4938055;29;20054;-78
2022/08/24 07:08:46;;;;;;;8.65;6.57;;;;;;;19.84;nan;101393.50;4956091;29;20035;-78
2022/08/24 07:11:14;;;;;;;11.20;7.30;;;;;;;19.90;nan;101393.22;4947178;29;20045;-78
2022/08/24 07:13:41;;;;;;;11.73;7.60;;;;;;;20.02;nan;101398.03;4952494;29;20047;-79
2022/08/24 07:16:08;;;;;;;9.02;7.40;;;;;;;20.15;nan;101395.59;4953376;29;20058;-78
2022/08/24 07:18:36;;;;;;;8.75;7.00;;;;;;;20.25;nan;101397.75;4954700;29;20069;-78
2022/08/24 07:21:03;;;;;;;9.70;8.45;;;;;;;20.36;nan;101397.25;4947132;29;20043;-77
2022/08/24 07:23:30;;;;;;;10.45;8.10;;;;;;;20.49;nan;101395.69;4950535;28;20381;-79
2022/08/24 07:26:14;;;;;;;12.55;9.13;;;;;;;20.58;nan;101393.50;4950037;29;20043;-79
2022/08/24 07:28:52;;;;;;;11.68;9.48;;;;;;;20.59;nan;101396.09;4974414;28;20073;-78
2022/08/24 07:31:19;;;;;;;11.88;9.25;;;;;;;20.67;nan;101399.28;4972594;28;20058;-78
2022/08/24 07:33:46;;;;;;;12.77;9.32;;;;;;;20.76;nan;101392.56;4974158;28;20039;-78
2022/08/24 07:36:16;;;;;;;12.05;9.70;;;;;;;20.84;nan;101392.16;4957249;28;20031;-79
2022/08/24 07:38:51;;;;;;;11.75;8.95;;;;;;;20.97;nan;101398.66;4934959;29;20109;-78
2022/08/24 07:41:20;;;;;;;11.07;8.50;;;;;;;21.13;nan;101402.28;4947108;29;20035;-78
2022/08/24 07:44:08;;;;;;;31.55;13.18;;;;;;;21.38;nan;101395.63;4947303;29;20047;-79
2022/08/24 07:46:35;;;;;;;20.25;10.48;;;;;;;21.49;nan;101393.22;4951507;29;20188;-77
2022/08/24 07:49:02;;;;;;;13.95;10.60;;;;;;;21.68;nan;101398.47;4937169;29;20050;-78
2022/08/24 07:51:38;;;;;;;13.88;10.95;;;;;;;21.70;nan;101394.75;4952887;28;20041;-78
2022/08/24 07:54:12;;;;;;;12.95;10.25;;;;;;;21.71;nan;101403.69;4949083;29;20523;-78
2022/08/24 07:56:40;;;;;;;14.10;10.07;;;;;;;21.67;nan;101408.34;4955845;28;20423;-78
2022/08/24 07:59:07;;;;;;;15.10;10.55;;;;;;;21.64;nan;101408.53;4948628;28;20047;-78
2022/08/24 08:01:39;;;;;;;11.93;10.50;;;;;;;21.54;nan;101402.78;4932309;29;20058;-78
2022/08/24 08:04:06;;;;;;;12.15;9.57;;;;;;;21.53;nan;101401.06;4953467;29;20046;-78
2022/08/24 08:06:33;;;;;;;15.23;11.32;;;;;;;21.62;nan;101403.25;4952658;29;20039;-78
2022/08/24 08:09:03;;;;;;;12.77;10.98;;;;;;;21.66;nan;101409.31;4951823;29;20042;-78
2022/08/24 08:11:30;;;;;;;14.35;11.32;;;;;;;21.64;nan;101408.53;4948051;28;20042;-77
2022/08/24 08:13:57;;;;;;;14.85;11.65;;;;;;;21.59;nan;101406.06;4950702;29;20743;-77
2022/08/24 08:16:25;;;;;;;14.30;11.68;;;;;;;21.62;nan;101411.31;4951666;28;20042;-77
2022/08/24 08:18:52;;;;;;;17.98;11.73;;;;;;;21.70;nan;101413.56;4955356;28;20039;-77
2022/08/24 08:24:26;;;;;;;20.50;11.07;;;;;;;;;;4953088;29;20045;-78
2022/08/24 08:26:53;;;;;;;13.27;10.45;;;;;;;21.81;nan;101419.22;4943827;29;20546;-78
2022/08/24 08:29:20;;;;;;;12.32;11.00;;;;;;;21.90;nan;101424.09;4953291;29;20045;-77
2022/08/24 08:31:47;;;;;;;12.85;10.30;;;;;;;22.11;nan;101423.88;4949860;29;20050;-78
2022/08/24 08:34:15;;;;;;;11.68;9.27;;;;;;;22.30;nan;101418.31;4950556;29;20043;-78
2022/08/24 08:36:42;;;;;;;11.65;10.00;;;;;;;22.51;nan;101422.44;4930354;29;20037;-77
2022/08/24 08:39:11;;;;;;;12.35;9.82;;;;;;;22.68;nan;101427.72;4953121;29;20038;-78
2022/08/24 08:41:57;;;;;;;12.75;9.38;;;;;;;22.79;nan;101429.81;4949709;29;20035;-78
2022/08/24 08:44:48;;;;;;;10.57;9.48;;;;;;;23.00;nan;101427.66;4948002;29;20039;-78
2022/08/24 08:47:46;;;;;;;35.47;13.02;;;;;;;23.27;nan;101428.69;4950596;29;20047;-77
2022/08/24 08:50:24;;;;;;;12.88;8.85;;;;;;;23.37;nan;101430.81;4952770;28;20531;-77
2022/08/24 08:53:12;;;;;;;19.60;10.77;;;;;;;23.37;nan;101425.41;4938038;29;20407;-78
2022/08/24 08:56:20;;;;;;;11.32;8.43;;;;;;;23.16;nan;101431.16;4936780;29;20039;-77
2022/08/24 08:59:09;;;;;;;25.30;12.48;;;;;;;23.07;nan;101428.16;4950431;29;20532;-78
2022/08/24 09:02:06;;;;;;;12.20;9.20;;;;;;;23.08;nan;101432.59;4944932;28;20043;-77
2022/08/24 09:05:01;;;;;;;11.10;9.90;;;;;;;23.03;nan;101431.03;4936245;29;20047;-77
2022/08/24 09:07:47;;;;;;;11.60;9.75;;;;;;;23.05;nan;101424.72;4948229;29;20039;-77
2022/08/24 09:10:35;;;;;;;11.85;10.40;;;;;;;23.20;nan;101430.00;4937039;29;20039;-77
2022/08/24 09:13:53;;;;;;;11.50;10.15;;;;;;;23.62;nan;101428.34;4927205;29;20035;-78
2022/08/24 09:16:29;;;;;;;10.35;9.38;;;;;;;23.72;nan;101423.25;4936347;28;20527;-79
2022/08/24 09:19:34;;;;;;;10.57;9.40;;;;;;;23.95;nan;101419.06;4952465;29;20519;-78
2022/08/24 09:22:11;;;;;;;11.57;10.02;;;;;;;23.87;nan;101427.66;4947339;29;20542;-78
2022/08/24 09:24:53;;;;;;;11.25;8.93;;;;;;;23.97;nan;101426.13;4954021;29;20035;-77
2022/08/24 09:27:40;;;;;;;10.07;9.10;;;;;;;23.95;nan;101419.94;4942316;29;20045;-79
2022/08/24 09:30:21;;;;;;;9.52;8.52;;;;;;;23.97;nan;101420.72;4934282;29;20057;-78
2022/08/24 09:33:07;;;;;;;10.50;8.68;;;;;;;24.07;nan;101421.00;4949224;28;20035;-78
2022/08/24 09:35:34;;;;;;;9.25;8.43;;;;;;;24.21;nan;101423.63;4930447;29;20031;-78
2022/08/24 09:38:27;;;;;;;9.40;8.50;;;;;;;24.42;nan;101418.72;4944533;29;20073;-78
2022/08/24 09:41:19;;;;;;;8.90;8.10;;;;;;;24.55;nan;101413.34;4933726;29;20050;-78
2022/08/24 09:43:55;;;;;;;9.25;8.35;;;;;;;24.69;nan;101427.66;4951409;29;20039;-79
2022/08/24 09:46:46;;;;;;;9.13;7.93;;;;;;;24.66;nan;101424.31;4933299;29;20486;-79
2022/08/24 09:49:27;;;;;;;10.30;7.95;;;;;;;24.64;nan;101429.81;4956367;29;20095;-80
2022/08/24 09:52:08;;;;;;;8.77;7.75;;;;;;;24.48;nan;101423.72;4958059;29;20083;-78
2022/08/24 09:55:14;;;;;;;8.45;7.28;;;;;;;24.50;nan;101426.31;4960589;29;20106;-80
2022/08/24 09:57:57;;;;;;;10.00;8.00;;;;;;;24.49;nan;101425.44;4937910;28;20134;-81
2022/08/24 10:00:33;;;;;;;8.80;7.38;;;;;;;24.60;nan;101414.78;4950053;29;20192;-80
2022/08/24 10:03:25;;;;;;;8.10;7.40;;;;;;;24.69;nan;101421.38;4936234;29;20423;-80
2022/08/24 10:06:41;;;;;;;9.27;7.35;;;;;;;24.65;nan;101414.47;4942119;29;20053;-79
2022/08/24 10:09:46;;;;;;;7.43;6.47;;;;;;;24.74;nan;101415.69;4937120;29;20047;-80
2022/08/24 10:12:12;;;;;;;;;;;;;;;24.84;nan;101409.53;4949223;29;20722;-80
2022/08/24 10:15:05;;;;;;;8.27;7.47;;;;;;;24.87;nan;101416.56;4949922;28;19922;-80
2022/08/24 10:17:57;;;;;;;7.93;7.22;;;;;;;24.89;nan;101418.22;4942336;28;20408;-79
2022/08/24 10:20:45;;;;;;;8.10;7.32;;;;;;;24.90;nan;101405.56;4953601;28;20040;-79
2022/08/24 10:23:48;;;;;;;7.75;6.97;;;;;;;24.94;nan;101415.19;4951699;29;20124;-78
2022/08/24 10:26:30;;;;;;;6.43;5.82;;;;;;;24.81;nan;101398.97;4952269;29;20045;-79
2022/08/24 10:29:11;;;;;;;8.35;7.40;;;;;;;24.87;nan;101405.75;4955730;29;20405;-77
2022/08/24 10:31:46;;;;;;;7.15;6.55;;;;;;;24.88;nan;101404.78;4937250;29;20046;-78
2022/08/24 10:34:22;;;;;;;14.65;8.23;;;;;;;24.95;nan;101401.56;4956678;29;20655;-79
2022/08/24 10:36:55;;;;;;;8.85;7.90;;;;;;;25.02;nan;101398.44;4954846;29;20055;-78
2022/08/24 10:39:50;;;;;;;8.68;7.78;;;;;;;25.08;nan;101396.22;4953530;29;20031;-78
2022/08/24 10:46:35;;;;;;;8.73;7.82;;;;;;;25.12;nan;101403.13;4939874;29;20046;-78
2022/08/24 10:49:14;;;;;;;10.07;7.80;;;;;;;25.39;nan;101389.53;4915739;29;20040;-78
2022/08/24 10:51:56;;;;;;;8.93;7.85;;;;;;;25.49;nan;101392.44;4910106;29;20050;-78
2022/08/24 10:54:23;;;;;;;9.00;8.20;;;;;;;25.92;nan;101397.47;4927747;29;20062;-77
2022/08/24 10:57:05;;;;;;;9.45;7.82;;;;;;;25.87;nan;101391.53;4936424;29;20051;-78
2022/08/24 10:59:48;;;;;;;7.65;6.85;;;;;;;25.42;nan;101391.13;4941134;29;20047;-79
2022/08/24 11:02:35;;;;;;;10.88;7.35;;;;;;;25.49;nan;101397.84;4955010;29;20042;-79
2022/08/24 11:05:07;;;;;;;9.23;8.23;;;;;;;25.61;nan;101394.25;4954921;29;20038;-78
2022/08/24 11:07:35;;;;;;;10.30;7.97;;;;;;;25.72;nan;101393.50;4937270;29;20041;-79
2022/08/24 11:10:07;;;;;;;8.77;7.97;;;;;;;25.81;nan;101399.13;4954300;29;20043;-79
2022/08/24 11:12:41;;;;;;;7.85;6.97;;;;;;;25.80;nan;101393.81;4954040;29;20041;-79
2022/08/24 11:15:17;;;;;;;8.25;7.45;;;;;;;25.65;nan;101387.66;4946611;29;20066;-79
2022/08/24 11:17:59;;;;;;;9.57;7.32;;;;;;;25.84;nan;101386.34;4951238;29;20432;-78
2022/08/24 11:20:29;;;;;;;8.60;7.63;;;;;;;26.03;nan;101389.41;4945884;29;20505;-78
2022/08/24 11:23:03;;;;;;;8.38;7.32;;;;;;;26.12;nan;101390.59;4951433;28;20416;-78
2022/08/24 11:25:32;;;;;;;8.50;7.00;;;;;;;26.12;nan;101383.31;4952924;28;20041;-79
2022/08/24 11:28:32;;;;;;;10.77;7.90;;;;;;;26.01;nan;101384.13;4948611;29;20416;-77
2022/08/24 11:30:59;;;;;;;7.68;6.95;;;;;;;25.98;nan;101386.16;4952472;29;20059;-78
2022/08/24 11:33:43;;;;;;;8.05;7.25;;;;;;;25.81;nan;101385.59;4954740;29;20489;-78
2022/08/24 11:36:16;;;;;;;10.95;7.72;;;;;;;25.72;nan;101385.38;4949459;29;20515;-78
2022/08/24 11:38:47;;;;;;;7.30;6.60;;;;;;;25.94;nan;101385.53;4952493;29;20421;-77
2022/08/24 11:41:29;;;;;;;8.43;7.15;;;;;;;26.00;nan;101384.25;4947681;29;20497;-77
2022/08/24 11:44:40;;;;;;;8.27;7.05;;;;;;;26.25;nan;101383.28;4938763;29;20098;-78
2022/08/24 11:47:20;;;;;;;7.75;6.78;;;;;;;26.57;nan;101384.47;4953960;29;20043;-78
2022/08/24 11:50:29;;;;;;;8.80;6.78;;;;;;;26.62;nan;101386.81;4936697;29;20045;-78
2022/08/24 11:53:02;;;;;;;7.70;6.45;;;;;;;26.79;nan;101388.22;4939915;28;20119;-77
2022/08/24 11:55:35;;;;;;;7.53;5.97;;;;;;;26.50;nan;101382.34;4948943;29;20050;-79
2022/08/24 11:58:16;;;;;;;;;;;;;;;26.22;nan;101381.66;4951573;29;20050;-78
2022/08/24 12:01:04;;;;;;;7.18;6.10;;;;;;;26.41;nan;101378.47;4954738;28;19933;-79
2022/08/24 12:04:09;;;;;;;8.93;6.35;;;;;;;26.89;nan;101373.81;4938365;29;20027;-78
2022/08/24 12:07:07;;;;;;;7.20;6.43;;;;;;;27.10;nan;101375.91;4945895;29;20042;-78
2022/08/24 12:09:43;;;;;;;7.13;6.38;;;;;;;27.00;nan;101378.44;4953687;29;20031;-79
2022/08/24 12:12:28;;;;;;;6.30;5.70;;;;;;;26.78;nan;101386.50;4951835;29;20051;-79
2022/08/24 12:15:19;;;;;;;7.65;6.05;;;;;;;26.27;nan;101387.59;4953325;28;20043;-79
2022/08/24 12:18:03;;;;;;;7.68;6.88;;;;;;;26.20;nan;101382.75;4944564;29;20047;-79
2022/08/24 12:20:32;;;;;;;10.07;6.35;;;;;;;26.23;nan;101379.81;4933656;29;20061;-78
2022/08/24 12:23:07;;;;;;;7.32;5.78;;;;;;;26.33;nan;101378.16;4952826;29;20045;-79